sensor_id;sensor_type;location;lat;lon;timestamp;pressure;altitude;pressure_sealevel;temperature;humidity
6389;BME280;3227;42.654;23.360;2023-07-31T00:01:54;94105.09;;;23.33;71.51
6389;BME280;3227;42.654;23.360;2023-07-31T00:04:20;94106.63;;;23.37;71.63
6389;BME280;3227;42.654;23.360;2023-07-31T00:06:47;94108.97;;;23.41;71.22
6389;BME280;3227;42.654;23.360;2023-07-31T00:09:15;94110.72;;;23.41;71.39
6389;BME280;3227;42.654;23.360;2023-07-31T00:11:42;94111.16;;;23.49;71.12
6389;BME280;3227;42.654;23.360;2023-07-31T00:14:09;94118.94;;;23.50;71.21
6389;BME280;3227;42.654;23.360;2023-07-31T00:16:35;94121.13;;;23.58;70.97
6389;BME280;3227;42.654;23.360;2023-07-31T00:19:02;94118.41;;;23.60;71.21
6389;BME280;3227;42.654;23.360;2023-07-31T00:21:29;94106.19;;;23.60;71.32
6389;BME280;3227;42.654;23.360;2023-07-31T00:23:56;94107.97;;;23.60;70.91
6389;BME280;3227;42.654;23.360;2023-07-31T00:26:24;94099.44;;;23.56;70.80
6389;BME280;3227;42.654;23.360;2023-07-31T00:28:50;94106.84;;;23.48;70.85
6389;BME280;3227;42.654;23.360;2023-07-31T00:31:17;94099.94;;;23.47;71.38
6389;BME280;3227;42.654;23.360;2023-07-31T00:33:44;94096.50;;;23.46;71.44
6389;BME280;3227;42.654;23.360;2023-07-31T00:36:11;94087.03;;;23.44;72.54
6389;BME280;3227;42.654;23.360;2023-07-31T00:38:37;94084.50;;;23.42;73.53
6389;BME280;3227;42.654;23.360;2023-07-31T00:41:04;94080.19;;;23.41;73.39
6389;BME280;3227;42.654;23.360;2023-07-31T00:43:32;94079.44;;;23.39;75.53
6389;BME280;3227;42.654;23.360;2023-07-31T00:45:59;94083.25;;;23.34;74.92
6389;BME280;3227;42.654;23.360;2023-07-31T00:48:28;94080.41;;;23.38;75.24
6389;BME280;3227;42.654;23.360;2023-07-31T00:50:55;94085.34;;;23.43;75.40
6389;BME280;3227;42.654;23.360;2023-07-31T00:53:21;94084.50;;;23.42;75.62
6389;BME280;3227;42.654;23.360;2023-07-31T00:55:48;94090.44;;;23.30;76.45
6389;BME280;3227;42.654;23.360;2023-07-31T00:58:15;94088.78;;;23.13;77.37
6389;BME280;3227;42.654;23.360;2023-07-31T01:00:43;94092.47;;;22.94;78.78
6389;BME280;3227;42.654;23.360;2023-07-31T01:03:10;94083.09;;;22.90;78.98
6389;BME280;3227;42.654;23.360;2023-07-31T01:05:46;94076.63;;;22.97;79.11
6389;BME280;3227;42.654;23.360;2023-07-31T01:08:21;94075.59;;;22.99;78.31
6389;BME280;3227;42.654;23.360;2023-07-31T01:10:54;94082.00;;;23.09;78.13
6389;BME280;3227;42.654;23.360;2023-07-31T01:13:22;94071.56;;;23.09;78.33
6389;BME280;3227;42.654;23.360;2023-07-31T01:15:51;94072.06;;;23.00;78.86
6389;BME280;3227;42.654;23.360;2023-07-31T01:18:18;94071.41;;;22.97;78.61
6389;BME280;3227;42.654;23.360;2023-07-31T01:20:53;94069.53;;;22.99;79.36
6389;BME280;3227;42.654;23.360;2023-07-31T01:23:34;94068.78;;;22.97;79.02
6389;BME280;3227;42.654;23.360;2023-07-31T01:26:11;94054.03;;;22.96;78.84
6389;BME280;3227;42.654;23.360;2023-07-31T01:28:46;94067.53;;;23.04;78.77
6389;BME280;3227;42.654;23.360;2023-07-31T01:31:16;94066.84;;;23.00;79.51
6389;BME280;3227;42.654;23.360;2023-07-31T01:33:45;94065.41;;;22.95;79.79
6389;BME280;3227;42.654;23.360;2023-07-31T01:36:12;94054.34;;;22.90;80.50
6389;BME280;3227;42.654;23.360;2023-07-31T01:38:40;94060.19;;;22.79;81.58
6389;BME280;3227;42.654;23.360;2023-07-31T01:41:08;94058.53;;;22.61;82.78
6389;BME280;3227;42.654;23.360;2023-07-31T01:43:34;94058.53;;;22.61;82.35
6389;BME280;3227;42.654;23.360;2023-07-31T01:46:01;94054.94;;;22.63;82.74
6389;BME280;3227;42.654;23.360;2023-07-31T01:48:28;94055.16;;;22.59;82.78
6389;BME280;3227;42.654;23.360;2023-07-31T01:51:00;94053.88;;;22.50;83.66
6389;BME280;3227;42.654;23.360;2023-07-31T01:53:27;94054.81;;;22.49;84.37
6389;BME280;3227;42.654;23.360;2023-07-31T01:55:54;94055.00;;;22.46;84.81
6389;BME280;3227;42.654;23.360;2023-07-31T01:58:22;94062.81;;;22.46;84.62
6389;BME280;3227;42.654;23.360;2023-07-31T02:00:49;94046.13;;;22.33;85.41
6389;BME280;3227;42.654;23.360;2023-07-31T02:03:16;94047.88;;;22.32;85.60
6389;BME280;3227;42.654;23.360;2023-07-31T02:05:44;94064.75;;;22.43;86.39
6389;BME280;3227;42.654;23.360;2023-07-31T02:08:11;94071.13;;;22.37;86.51
6389;BME280;3227;42.654;23.360;2023-07-31T02:10:38;94066.84;;;22.36;86.46
6389;BME280;3227;42.654;23.360;2023-07-31T02:13:04;94025.09;;;22.03;86.91
6389;BME280;3227;42.654;23.360;2023-07-31T02:15:33;94074.81;;;22.33;87.12
6389;BME280;3227;42.654;23.360;2023-07-31T02:17:59;94084.41;;;22.32;87.56
6389;BME280;3227;42.654;23.360;2023-07-31T02:20:26;94080.88;;;22.33;87.33
6389;BME280;3227;42.654;23.360;2023-07-31T02:22:53;94077.53;;;22.31;87.65
6389;BME280;3227;42.654;23.360;2023-07-31T02:25:20;94083.91;;;22.26;88.27
6389;BME280;3227;42.654;23.360;2023-07-31T02:27:46;94083.69;;;22.30;87.81
6389;BME280;3227;42.654;23.360;2023-07-31T02:30:13;94081.91;;;22.31;88.27
6389;BME280;3227;42.654;23.360;2023-07-31T02:32:41;94078.88;;;22.23;88.79
6389;BME280;3227;42.654;23.360;2023-07-31T02:35:08;94084.09;;;22.23;88.75
6389;BME280;3227;42.654;23.360;2023-07-31T02:37:36;94076.06;;;22.26;88.51
6389;BME280;3227;42.654;23.360;2023-07-31T02:40:05;94079.91;;;22.36;87.85
6389;BME280;3227;42.654;23.360;2023-07-31T02:42:32;94076.22;;;22.40;87.74
6389;BME280;3227;42.654;23.360;2023-07-31T02:44:58;94077.72;;;22.44;87.58
6389;BME280;3227;42.654;23.360;2023-07-31T02:47:25;94080.78;;;22.52;86.75
6389;BME280;3227;42.654;23.360;2023-07-31T02:49:53;94078.00;;;22.55;87.04
6389;BME280;3227;42.654;23.360;2023-07-31T02:52:21;94072.50;;;22.44;86.79
6389;BME280;3227;42.654;23.360;2023-07-31T02:54:48;94085.91;;;22.54;87.01
6389;BME280;3227;42.654;23.360;2023-07-31T02:57:14;94085.91;;;22.54;87.10
6389;BME280;3227;42.654;23.360;2023-07-31T02:59:42;94084.16;;;22.54;86.16
6389;BME280;3227;42.654;23.360;2023-07-31T03:02:08;94090.22;;;22.55;86.36
6389;BME280;3227;42.654;23.360;2023-07-31T03:04:36;94098.13;;;22.53;86.66
6389;BME280;3227;42.654;23.360;2023-07-31T03:07:04;94095.38;;;22.56;86.49
6389;BME280;3227;42.654;23.360;2023-07-31T03:09:31;94089.44;;;22.53;86.36
6389;BME280;3227;42.654;23.360;2023-07-31T03:11:58;94092.97;;;22.52;86.19
6389;BME280;3227;42.654;23.360;2023-07-31T03:14:25;94096.28;;;22.55;86.25
6389;BME280;3227;42.654;23.360;2023-07-31T03:16:52;94085.81;;;22.39;85.99
6389;BME280;3227;42.654;23.360;2023-07-31T03:19:18;94108.50;;;22.55;86.32
6389;BME280;3227;42.654;23.360;2023-07-31T03:21:45;94100.66;;;22.55;86.43
6389;BME280;3227;42.654;23.360;2023-07-31T03:24:13;94111.78;;;22.58;86.59
6389;BME280;3227;42.654;23.360;2023-07-31T03:26:40;94111.78;;;22.58;86.14
6389;BME280;3227;42.654;23.360;2023-07-31T03:29:07;94107.31;;;22.60;86.25
6389;BME280;3227;42.654;23.360;2023-07-31T03:31:34;94113.09;;;22.50;87.65
6389;BME280;3227;42.654;23.360;2023-07-31T03:34:01;94112.94;;;22.53;87.09
6389;BME280;3227;42.654;23.360;2023-07-31T03:36:28;94109.56;;;22.51;87.26
6389;BME280;3227;42.654;23.360;2023-07-31T03:38:54;94114.72;;;22.52;87.26
6389;BME280;3227;42.654;23.360;2023-07-31T03:41:23;94110.84;;;22.59;86.29
6389;BME280;3227;42.654;23.360;2023-07-31T03:43:50;94121.81;;;22.66;86.59
6389;BME280;3227;42.654;23.360;2023-07-31T03:46:17;94112.97;;;22.68;86.17
6389;BME280;3227;42.654;23.360;2023-07-31T03:48:44;94108.84;;;22.64;86.54
6389;BME280;3227;42.654;23.360;2023-07-31T03:51:11;94119.81;;;22.71;85.62
6389;BME280;3227;42.654;23.360;2023-07-31T03:53:38;94124.81;;;22.75;84.98
6389;BME280;3227;42.654;23.360;2023-07-31T03:56:04;94119.50;;;22.77;84.90
6389;BME280;3227;42.654;23.360;2023-07-31T03:58:32;94126.50;;;22.76;84.35
6389;BME280;3227;42.654;23.360;2023-07-31T04:01:00;94131.84;;;22.73;85.09
6389;BME280;3227;42.654;23.360;2023-07-31T04:03:27;94124.25;;;22.69;85.14
6389;BME280;3227;42.654;23.360;2023-07-31T04:05:54;94123.75;;;22.62;85.53
6389;BME280;3227;42.654;23.360;2023-07-31T04:08:21;94123.38;;;22.53;86.08
6389;BME280;3227;42.654;23.360;2023-07-31T04:10:48;94131.66;;;22.61;85.64
6389;BME280;3227;42.654;23.360;2023-07-31T04:13:15;94139.56;;;22.59;85.91
6389;BME280;3227;42.654;23.360;2023-07-31T04:15:48;94138.97;;;22.54;86.05
6389;BME280;3227;42.654;23.360;2023-07-31T04:18:15;94132.53;;;22.44;86.31
6389;BME280;3227;42.654;23.360;2023-07-31T04:20:42;94139.91;;;22.53;85.80
6389;BME280;3227;42.654;23.360;2023-07-31T04:23:08;94139.91;;;22.53;86.10
6389;BME280;3227;42.654;23.360;2023-07-31T04:25:35;94133.13;;;22.49;86.24
6389;BME280;3227;42.654;23.360;2023-07-31T04:28:02;94143.59;;;22.49;86.36
6389;BME280;3227;42.654;23.360;2023-07-31T04:30:28;94141.59;;;22.54;85.91
6389;BME280;3227;42.654;23.360;2023-07-31T04:32:57;94110.03;;;22.42;85.17
6389;BME280;3227;42.654;23.360;2023-07-31T04:35:23;94138.78;;;22.74;84.23
6389;BME280;3227;42.654;23.360;2023-07-31T04:37:50;94148.41;;;22.90;83.27
6389;BME280;3227;42.654;23.360;2023-07-31T04:40:17;94086.00;;;22.68;82.56
6389;BME280;3227;42.654;23.360;2023-07-31T04:42:44;94149.47;;;23.19;81.20
6389;BME280;3227;42.654;23.360;2023-07-31T04:45:11;94145.34;;;23.30;80.32
6389;BME280;3227;42.654;23.360;2023-07-31T04:47:38;94151.72;;;23.40;79.41
6389;BME280;3227;42.654;23.360;2023-07-31T04:50:07;94143.56;;;23.46;78.93
6389;BME280;3227;42.654;23.360;2023-07-31T04:52:34;94145.75;;;23.38;79.31
6389;BME280;3227;42.654;23.360;2023-07-31T04:55:01;94146.41;;;23.26;79.59
6389;BME280;3227;42.654;23.360;2023-07-31T04:57:28;94129.72;;;23.29;79.17
6389;BME280;3227;42.654;23.360;2023-07-31T04:59:55;94142.53;;;23.33;78.78
6389;BME280;3227;42.654;23.360;2023-07-31T05:02:21;94137.47;;;23.46;78.15
6389;BME280;3227;42.654;23.360;2023-07-31T05:04:49;94142.19;;;23.71;77.00
6389;BME280;3227;42.654;23.360;2023-07-31T05:07:17;94149.41;;;23.81;76.56
6389;BME280;3227;42.654;23.360;2023-07-31T05:09:44;94139.31;;;24.05;75.66
6389;BME280;3227;42.654;23.360;2023-07-31T05:12:11;94146.94;;;24.54;73.62
6389;BME280;3227;42.654;23.360;2023-07-31T05:14:38;94142.25;;;25.16;70.60
6389;BME280;3227;42.654;23.360;2023-07-31T05:17:05;94143.03;;;25.30;69.03
6389;BME280;3227;42.654;23.360;2023-07-31T05:19:32;94144.03;;;25.15;69.23
6389;BME280;3227;42.654;23.360;2023-07-31T05:21:58;94141.34;;;25.02;69.71
6389;BME280;3227;42.654;23.360;2023-07-31T05:24:27;94140.81;;;25.24;69.00
6389;BME280;3227;42.654;23.360;2023-07-31T05:26:53;94132.94;;;25.24;69.21
6389;BME280;3227;42.654;23.360;2023-07-31T05:29:20;94138.22;;;25.51;68.40
6389;BME280;3227;42.654;23.360;2023-07-31T05:31:47;94133.38;;;25.99;66.64
6389;BME280;3227;42.654;23.360;2023-07-31T05:34:13;94127.25;;;26.38;63.78
6389;BME280;3227;42.654;23.360;2023-07-31T05:36:40;94131.81;;;26.74;62.41
6389;BME280;3227;42.654;23.360;2023-07-31T05:39:07;94138.72;;;26.62;62.14
6389;BME280;3227;42.654;23.360;2023-07-31T05:41:35;94135.81;;;26.67;62.11
6389;BME280;3227;42.654;23.360;2023-07-31T05:44:02;94106.56;;;26.33;62.23
6389;BME280;3227;42.654;23.360;2023-07-31T05:46:29;94133.38;;;26.38;62.69
6389;BME280;3227;42.654;23.360;2023-07-31T05:48:56;94139.34;;;26.78;61.02
6389;BME280;3227;42.654;23.360;2023-07-31T05:51:25;94141.78;;;27.07;60.20
6389;BME280;3227;42.654;23.360;2023-07-31T05:53:52;94136.78;;;27.40;57.94
6389;BME280;3227;42.654;23.360;2023-07-31T05:56:18;94148.19;;;27.64;56.40
6389;BME280;3227;42.654;23.360;2023-07-31T05:58:47;94147.63;;;27.72;55.73
6389;BME280;3227;42.654;23.360;2023-07-31T06:01:15;94137.38;;;27.56;55.24
6389;BME280;3227;42.654;23.360;2023-07-31T06:03:42;94158.84;;;27.50;55.63
6389;BME280;3227;42.654;23.360;2023-07-31T06:06:09;94160.59;;;27.26;56.47
6389;BME280;3227;42.654;23.360;2023-07-31T06:08:36;94166.75;;;27.01;57.00
6389;BME280;3227;42.654;23.360;2023-07-31T06:11:03;94157.78;;;26.66;57.84
6389;BME280;3227;42.654;23.360;2023-07-31T06:13:29;94160.50;;;26.51;57.83
6389;BME280;3227;42.654;23.360;2023-07-31T06:15:57;94154.09;;;26.43;58.02
6389;BME280;3227;42.654;23.360;2023-07-31T06:18:25;94162.06;;;26.41;57.26
6389;BME280;3227;42.654;23.360;2023-07-31T06:20:52;94156.19;;;26.63;55.92
6389;BME280;3227;42.654;23.360;2023-07-31T06:23:19;94160.09;;;26.83;54.38
6389;BME280;3227;42.654;23.360;2023-07-31T06:25:46;94157.03;;;27.14;53.18
6389;BME280;3227;42.654;23.360;2023-07-31T06:28:12;94154.59;;;27.24;51.96
6389;BME280;3227;42.654;23.360;2023-07-31T06:30:39;94160.50;;;27.64;50.58
6389;BME280;3227;42.654;23.360;2023-07-31T06:33:07;94163.06;;;28.00;50.99
6389;BME280;3227;42.654;23.360;2023-07-31T06:35:35;94153.75;;;28.20;49.33
6389;BME280;3227;42.654;23.360;2023-07-31T06:38:01;94153.94;;;28.17;48.75
6389;BME280;3227;42.654;23.360;2023-07-31T06:40:28;94144.19;;;28.07;49.16
6389;BME280;3227;42.654;23.360;2023-07-31T06:42:55;94155.41;;;27.74;49.64
6389;BME280;3227;42.654;23.360;2023-07-31T06:45:22;94158.22;;;27.47;51.24
6389;BME280;3227;42.654;23.360;2023-07-31T06:47:49;94154.28;;;27.03;52.61
6389;BME280;3227;42.654;23.360;2023-07-31T06:50:20;94160.31;;;27.05;53.23
6389;BME280;3227;42.654;23.360;2023-07-31T06:52:47;94165.00;;;27.25;53.39
6389;BME280;3227;42.654;23.360;2023-07-31T06:55:17;94171.81;;;27.41;52.36
6389;BME280;3227;42.654;23.360;2023-07-31T06:57:45;94178.53;;;27.45;52.71
6389;BME280;3227;42.654;23.360;2023-07-31T07:00:13;94163.28;;;27.50;52.29
6389;BME280;3227;42.654;23.360;2023-07-31T07:02:40;94168.34;;;27.27;52.13
6389;BME280;3227;42.654;23.360;2023-07-31T07:05:09;94169.69;;;27.09;53.38
6389;BME280;3227;42.654;23.360;2023-07-31T07:07:37;94164.78;;;27.28;53.19
6389;BME280;3227;42.654;23.360;2023-07-31T07:10:04;94162.97;;;27.42;53.41
6389;BME280;3227;42.654;23.360;2023-07-31T07:12:32;94132.19;;;27.18;51.04
6389;BME280;3227;42.654;23.360;2023-07-31T07:14:59;94164.75;;;27.41;50.89
6389;BME280;3227;42.654;23.360;2023-07-31T07:17:28;94166.97;;;27.35;50.93
6389;BME280;3227;42.654;23.360;2023-07-31T07:19:57;94170.88;;;27.42;50.70
6389;BME280;3227;42.654;23.360;2023-07-31T07:22:24;94165.72;;;27.40;51.08
6389;BME280;3227;42.654;23.360;2023-07-31T07:24:53;94167.06;;;27.46;51.08
6389;BME280;3227;42.654;23.360;2023-07-31T07:27:20;94166.59;;;27.52;51.27
6389;BME280;3227;42.654;23.360;2023-07-31T07:29:47;94168.00;;;27.57;49.89
6389;BME280;3227;42.654;23.360;2023-07-31T07:32:13;94158.38;;;27.69;49.35
6389;BME280;3227;42.654;23.360;2023-07-31T07:34:40;94164.94;;;27.63;49.41
6389;BME280;3227;42.654;23.360;2023-07-31T07:37:07;94160.78;;;27.96;49.20
6389;BME280;3227;42.654;23.360;2023-07-31T07:39:34;94168.97;;;28.28;48.53
6389;BME280;3227;42.654;23.360;2023-07-31T07:42:02;94162.59;;;28.54;48.40
6389;BME280;3227;42.654;23.360;2023-07-31T07:44:29;94167.81;;;28.43;46.17
6389;BME280;3227;42.654;23.360;2023-07-31T07:46:56;94175.00;;;27.93;48.17
6389;BME280;3227;42.654;23.360;2023-07-31T07:49:23;94175.94;;;27.81;48.83
6389;BME280;3227;42.654;23.360;2023-07-31T07:51:49;94174.81;;;27.73;48.91
6389;BME280;3227;42.654;23.360;2023-07-31T07:54:16;94177.88;;;27.90;49.02
6389;BME280;3227;42.654;23.360;2023-07-31T07:56:43;94160.13;;;28.05;48.76
6389;BME280;3227;42.654;23.360;2023-07-31T07:59:11;94179.94;;;28.46;47.24
6389;BME280;3227;42.654;23.360;2023-07-31T08:01:38;94174.13;;;28.64;46.30
6389;BME280;3227;42.654;23.360;2023-07-31T08:04:04;94179.84;;;28.58;46.01
6389;BME280;3227;42.654;23.360;2023-07-31T08:06:31;94181.41;;;28.61;45.27
6389;BME280;3227;42.654;23.360;2023-07-31T08:08:59;94171.19;;;28.45;44.60
6389;BME280;3227;42.654;23.360;2023-07-31T08:11:30;94164.91;;;28.24;45.84
6389;BME280;3227;42.654;23.360;2023-07-31T08:13:57;94168.91;;;28.17;46.60
6389;BME280;3227;42.654;23.360;2023-07-31T08:16:25;94155.41;;;28.21;46.32
6389;BME280;3227;42.654;23.360;2023-07-31T08:18:52;94180.72;;;28.35;46.30
6389;BME280;3227;42.654;23.360;2023-07-31T08:21:19;94177.97;;;28.36;46.42
6389;BME280;3227;42.654;23.360;2023-07-31T08:23:45;94177.50;;;28.43;46.65
6389;BME280;3227;42.654;23.360;2023-07-31T08:26:15;94179.56;;;28.50;46.18
6389;BME280;3227;42.654;23.360;2023-07-31T08:28:42;94173.38;;;28.62;45.61
6389;BME280;3227;42.654;23.360;2023-07-31T08:31:08;94177.50;;;28.43;45.04
6389;BME280;3227;42.654;23.360;2023-07-31T08:33:37;94174.97;;;28.30;45.66
6389;BME280;3227;42.654;23.360;2023-07-31T08:36:09;94163.13;;;28.12;45.77
6389;BME280;3227;42.654;23.360;2023-07-31T08:38:36;94176.97;;;28.02;47.92
6389;BME280;3227;42.654;23.360;2023-07-31T08:41:03;94174.72;;;28.22;45.77
6389;BME280;3227;42.654;23.360;2023-07-31T08:43:30;94172.06;;;28.22;44.66
6389;BME280;3227;42.654;23.360;2023-07-31T08:45:57;94173.88;;;28.21;45.60
6389;BME280;3227;42.654;23.360;2023-07-31T08:48:25;94178.34;;;28.32;44.78
6389;BME280;3227;42.654;23.360;2023-07-31T08:50:54;94174.88;;;28.43;44.73
6389;BME280;3227;42.654;23.360;2023-07-31T08:53:20;94172.19;;;28.55;44.36
6389;BME280;3227;42.654;23.360;2023-07-31T08:55:48;94179.38;;;28.75;44.15
6389;BME280;3227;42.654;23.360;2023-07-31T08:58:15;94171.78;;;28.95;43.21
6389;BME280;3227;42.654;23.360;2023-07-31T09:00:46;94180.91;;;28.91;42.45
6389;BME280;3227;42.654;23.360;2023-07-31T09:03:14;94181.84;;;28.79;43.10
6389;BME280;3227;42.654;23.360;2023-07-31T09:05:43;94170.97;;;28.59;43.51
6389;BME280;3227;42.654;23.360;2023-07-31T09:08:12;94169.84;;;28.39;43.84
6389;BME280;3227;42.654;23.360;2023-07-31T09:10:43;94166.34;;;28.28;44.44
6389;BME280;3227;42.654;23.360;2023-07-31T09:13:11;94146.47;;;28.35;44.89
6389;BME280;3227;42.654;23.360;2023-07-31T09:15:39;94162.25;;;28.70;44.19
6389;BME280;3227;42.654;23.360;2023-07-31T09:18:07;94111.78;;;28.52;43.33
6389;BME280;3227;42.654;23.360;2023-07-31T09:20:34;94161.72;;;28.89;43.06
6389;BME280;3227;42.654;23.360;2023-07-31T09:23:08;94161.97;;;28.97;43.14
6389;BME280;3227;42.654;23.360;2023-07-31T09:25:37;94153.69;;;29.12;41.54
6389;BME280;3227;42.654;23.360;2023-07-31T09:28:05;94156.19;;;29.25;41.60
6389;BME280;3227;42.654;23.360;2023-07-31T09:30:45;94160.16;;;29.42;41.17
6389;BME280;3227;42.654;23.360;2023-07-31T09:33:12;94146.97;;;29.64;40.83
6389;BME280;3227;42.654;23.360;2023-07-31T09:35:39;94147.72;;;29.87;41.23
6389;BME280;3227;42.654;23.360;2023-07-31T09:38:08;94143.75;;;30.04;40.26
6389;BME280;3227;42.654;23.360;2023-07-31T09:40:38;94151.78;;;29.91;39.54
6389;BME280;3227;42.654;23.360;2023-07-31T09:43:06;94144.28;;;29.75;40.48
6389;BME280;3227;42.654;23.360;2023-07-31T09:45:34;94148.88;;;29.62;41.22
6389;BME280;3227;42.654;23.360;2023-07-31T09:48:02;94137.00;;;29.57;40.55
6389;BME280;3227;42.654;23.360;2023-07-31T09:50:30;94142.03;;;29.26;40.91
6389;BME280;3227;42.654;23.360;2023-07-31T09:52:57;94148.53;;;29.22;41.09
6389;BME280;3227;42.654;23.360;2023-07-31T09:55:24;94142.31;;;29.12;41.70
6389;BME280;3227;42.654;23.360;2023-07-31T09:57:54;94137.97;;;29.00;42.09
6389;BME280;3227;42.654;23.360;2023-07-31T10:00:23;94127.59;;;28.74;41.83
6389;BME280;3227;42.654;23.360;2023-07-31T10:02:53;94140.28;;;28.58;42.89
6389;BME280;3227;42.654;23.360;2023-07-31T10:05:20;94131.94;;;28.75;42.26
6389;BME280;3227;42.654;23.360;2023-07-31T10:07:52;94132.13;;;28.96;41.50
6389;BME280;3227;42.654;23.360;2023-07-31T10:10:20;94139.66;;;29.01;40.90
6389;BME280;3227;42.654;23.360;2023-07-31T10:12:48;94130.91;;;28.89;41.88
6389;BME280;3227;42.654;23.360;2023-07-31T10:15:18;94122.75;;;28.92;41.80
6389;BME280;3227;42.654;23.360;2023-07-31T10:17:47;94126.09;;;29.17;40.99
6389;BME280;3227;42.654;23.360;2023-07-31T10:20:14;94137.72;;;29.25;40.95
6389;BME280;3227;42.654;23.360;2023-07-31T10:22:43;94137.25;;;29.20;40.60
6389;BME280;3227;42.654;23.360;2023-07-31T10:25:11;94129.13;;;29.23;40.33
6389;BME280;3227;42.654;23.360;2023-07-31T10:27:39;94120.47;;;29.21;40.27
6389;BME280;3227;42.654;23.360;2023-07-31T10:30:08;94132.94;;;29.08;40.03
6389;BME280;3227;42.654;23.360;2023-07-31T10:32:40;94133.78;;;28.97;40.25
6389;BME280;3227;42.654;23.360;2023-07-31T10:35:08;94126.47;;;29.01;40.07
6389;BME280;3227;42.654;23.360;2023-07-31T10:37:37;94101.41;;;28.95;39.76
6389;BME280;3227;42.654;23.360;2023-07-31T10:40:06;94107.16;;;29.23;40.15
6389;BME280;3227;42.654;23.360;2023-07-31T10:42:34;94111.09;;;29.28;39.92
6389;BME280;3227;42.654;23.360;2023-07-31T10:45:04;94116.38;;;29.28;39.90
6389;BME280;3227;42.654;23.360;2023-07-31T10:47:36;94072.28;;;28.86;39.66
6389;BME280;3227;42.654;23.360;2023-07-31T10:50:17;94122.50;;;29.18;39.47
6389;BME280;3227;42.654;23.360;2023-07-31T10:52:49;94069.84;;;28.71;39.15
6389;BME280;3227;42.654;23.360;2023-07-31T10:55:24;94112.56;;;29.10;38.77
6389;BME280;3227;42.654;23.360;2023-07-31T10:57:51;94109.06;;;29.32;39.01
6389;BME280;3227;42.654;23.360;2023-07-31T11:00:19;94094.41;;;29.50;38.06
6389;BME280;3227;42.654;23.360;2023-07-31T11:02:56;94094.66;;;29.47;38.51
6389;BME280;3227;42.654;23.360;2023-07-31T11:05:41;94059.03;;;29.30;38.71
6389;BME280;3227;42.654;23.360;2023-07-31T11:08:11;94087.81;;;29.56;38.03
6389;BME280;3227;42.654;23.360;2023-07-31T11:10:38;94099.72;;;29.28;38.75
6389;BME280;3227;42.654;23.360;2023-07-31T11:13:05;94075.38;;;29.02;38.68
6389;BME280;3227;42.654;23.360;2023-07-31T11:15:32;94086.41;;;29.18;38.78
6389;BME280;3227;42.654;23.360;2023-07-31T11:18:00;94079.06;;;29.33;38.13
6389;BME280;3227;42.654;23.360;2023-07-31T11:20:31;94090.22;;;29.47;37.81
6389;BME280;3227;42.654;23.360;2023-07-31T11:22:59;94088.56;;;29.46;36.72
6389;BME280;3227;42.654;23.360;2023-07-31T11:25:28;94094.72;;;29.68;36.31
6389;BME280;3227;42.654;23.360;2023-07-31T11:27:55;94093.47;;;29.83;36.96
6389;BME280;3227;42.654;23.360;2023-07-31T11:30:22;94094.69;;;29.79;36.14
6389;BME280;3227;42.654;23.360;2023-07-31T11:32:49;94081.72;;;29.22;37.48
6389;BME280;3227;42.654;23.360;2023-07-31T11:35:16;94087.34;;;29.17;37.84
6389;BME280;3227;42.654;23.360;2023-07-31T11:37:44;94085.69;;;29.16;37.76
6389;BME280;3227;42.654;23.360;2023-07-31T11:40:12;94081.84;;;29.20;38.08
6389;BME280;3227;42.654;23.360;2023-07-31T11:42:38;94080.06;;;29.09;36.90
6389;BME280;3227;42.654;23.360;2023-07-31T11:45:06;94064.34;;;29.08;37.39
6389;BME280;3227;42.654;23.360;2023-07-31T11:47:34;94083.38;;;28.67;37.80
6389;BME280;3227;42.654;23.360;2023-07-31T11:50:01;94069.31;;;28.22;38.88
6389;BME280;3227;42.654;23.360;2023-07-31T11:52:30;94020.31;;;28.19;39.59
6389;BME280;3227;42.654;23.360;2023-07-31T11:54:59;94085.47;;;28.86;39.23
6389;BME280;3227;42.654;23.360;2023-07-31T11:57:27;94081.25;;;29.17;39.12
6389;BME280;3227;42.654;23.360;2023-07-31T11:59:55;94077.63;;;29.29;38.29
6389;BME280;3227;42.654;23.360;2023-07-31T12:02:23;94078.72;;;29.37;37.71
6389;BME280;3227;42.654;23.360;2023-07-31T12:04:50;94075.81;;;29.51;37.79
6389;BME280;3227;42.654;23.360;2023-07-31T12:07:17;94066.47;;;29.47;37.27
6389;BME280;3227;42.654;23.360;2023-07-31T12:09:53;94064.56;;;29.38;37.03
6389;BME280;3227;42.654;23.360;2023-07-31T12:12:23;94071.25;;;29.54;36.15
6389;BME280;3227;42.654;23.360;2023-07-31T12:14:50;94062.38;;;29.55;36.79
6389;BME280;3227;42.654;23.360;2023-07-31T12:17:17;94062.53;;;29.74;36.72
6389;BME280;3227;42.654;23.360;2023-07-31T12:19:45;94061.75;;;29.94;36.72
6389;BME280;3227;42.654;23.360;2023-07-31T12:22:12;94049.47;;;30.04;36.24
6389;BME280;3227;42.654;23.360;2023-07-31T12:24:39;94054.63;;;30.06;36.24
6389;BME280;3227;42.654;23.360;2023-07-31T12:27:10;94053.00;;;30.14;36.16
6389;BME280;3227;42.654;23.360;2023-07-31T12:29:39;94056.75;;;30.12;36.05
6389;BME280;3227;42.654;23.360;2023-07-31T12:32:19;94048.56;;;29.94;37.35
6389;BME280;3227;42.654;23.360;2023-07-31T12:34:51;94046.44;;;29.77;37.88
6389;BME280;3227;42.654;23.360;2023-07-31T12:37:18;94052.25;;;29.60;38.25
6389;BME280;3227;42.654;23.360;2023-07-31T12:39:45;94044.72;;;29.55;38.69
6389;BME280;3227;42.654;23.360;2023-07-31T12:42:11;94054.16;;;29.69;37.76
6389;BME280;3227;42.654;23.360;2023-07-31T12:44:40;94045.16;;;29.71;37.00
6389;BME280;3227;42.654;23.360;2023-07-31T12:47:06;94027.03;;;29.67;36.79
6389;BME280;3227;42.654;23.360;2023-07-31T12:49:33;94043.97;;;29.64;36.51
6389;BME280;3227;42.654;23.360;2023-07-31T12:52:00;94042.94;;;29.56;36.89
6389;BME280;3227;42.654;23.360;2023-07-31T12:54:26;94036.69;;;29.57;37.10
6389;BME280;3227;42.654;23.360;2023-07-31T12:56:53;94033.81;;;29.48;36.95
6389;BME280;3227;42.654;23.360;2023-07-31T12:59:20;94042.63;;;29.38;36.76
6389;BME280;3227;42.654;23.360;2023-07-31T13:01:48;94033.75;;;29.39;37.00
6389;BME280;3227;42.654;23.360;2023-07-31T13:04:15;94030.34;;;29.48;36.53
6389;BME280;3227;42.654;23.360;2023-07-31T13:06:41;94020.78;;;29.68;36.74
6389;BME280;3227;42.654;23.360;2023-07-31T13:09:08;94018.31;;;29.87;36.42
6389;BME280;3227;42.654;23.360;2023-07-31T13:11:36;94018.97;;;30.00;35.50
6389;BME280;3227;42.654;23.360;2023-07-31T13:14:02;94025.69;;;30.04;35.71